Time;durP1;ratioP1;P1;durP2;ratioP2;P2;SDS_P1;SDS_P2;PMS_P1;PMS_P2;Temp;Humidity;BMP_temperature;BMP_pressure;BME280_temperature;BME280_humidity;BME280_pressure;Samples;Min_cycle;Max_cycle;Signal;HPM_P1;HPM_P2
2022/07/24 00:01:49;;;;;;;15.02;11.10;;;23.40;99.90;;;;;;5036245;28;20096;-76
2022/07/24 00:04:16;;;;;;;17.23;10.90;;;23.40;99.90;;;;;;5038447;28;20049;-74
2022/07/24 00:06:44;;;;;;;12.70;11.25;;;23.40;99.90;;;;;;5039094;28;20103;-75
2022/07/24 00:09:11;;;;;;;14.55;11.60;;;23.30;99.90;;;;;;5037339;28;20046;-76
2022/07/24 00:11:40;;;;;;;14.40;12.27;;;23.30;99.90;;;;;;5037851;28;20053;-75
2022/07/24 00:14:07;;;;;;;11.68;10.55;;;23.30;99.90;;;;;;5036996;28;20045;-75
2022/07/24 00:16:35;;;;;;;15.63;11.32;;;23.30;99.90;;;;;;5018316;28;20144;-75
2022/07/24 00:19:02;;;;;;;14.93;11.63;;;23.30;99.90;;;;;;5035928;28;20041;-75
2022/07/24 00:21:29;;;;;;;15.20;11.98;;;23.20;99.90;;;;;;5035378;28;20115;-74
2022/07/24 00:23:57;;;;;;;15.65;12.50;;;23.30;99.90;;;;;;5035225;28;20049;-75
2022/07/24 00:26:24;;;;;;;13.43;12.02;;;23.20;99.90;;;;;;5039793;28;20056;-75
2022/07/24 00:28:53;;;;;;;14.73;11.63;;;23.30;99.90;;;;;;5040302;28;20080;-77
2022/07/24 00:31:20;;;;;;;14.05;11.63;;;23.30;99.90;;;;;;5036130;28;20044;-75
2022/07/24 00:33:48;;;;;;;14.48;11.82;;;23.30;99.90;;;;;;5017650;28;20045;-75
2022/07/24 00:36:16;;;;;;;15.70;12.50;;;23.20;99.90;;;;;;5035036;28;20037;-75
2022/07/24 00:38:43;;;;;;;16.55;12.63;;;23.20;99.90;;;;;;5035430;28;20033;-78
2022/07/24 00:41:11;;;;;;;15.48;11.55;;;23.10;99.90;;;;;;5034873;28;20136;-76
2022/07/24 00:44:01;;;;;;;16.80;12.00;;;23.10;99.90;;;;;;5034853;28;20063;-75
2022/07/24 00:46:29;;;;;;;13.90;12.30;;;23.00;99.90;;;;;;5035286;28;20046;-76
2022/07/24 00:48:57;;;;;;;17.30;12.38;;;22.90;99.90;;;;;;5035208;28;20107;-76
2022/07/24 00:51:25;;;;;;;14.50;12.05;;;23.00;99.90;;;;;;5030161;28;20060;-75
2022/07/24 00:53:52;;;;;;;13.65;12.13;;;22.90;99.90;;;;;;5050503;28;20029;-78
2022/07/24 00:56:20;;;;;;;14.70;11.65;;;22.80;99.90;;;;;;5056180;28;20045;-75
2022/07/24 00:58:48;;;;;;;14.75;12.85;;;22.80;99.90;;;;;;5043437;28;20045;-77
2022/07/24 01:01:18;;;;;;;14.15;12.48;;;22.80;99.90;;;;;;5036711;28;20049;-75
2022/07/24 01:03:46;;;;;;;15.63;11.68;;;22.70;99.90;;;;;;5040244;28;20045;-77
2022/07/24 01:06:14;;;;;;;16.08;12.35;;;22.70;99.90;;;;;;5038893;28;20042;-76
2022/07/24 01:08:43;;;;;;;16.27;13.05;;;22.60;99.90;;;;;;5035384;28;20037;-76
2022/07/24 01:11:11;;;;;;;17.13;12.65;;;22.60;99.90;;;;;;5034693;28;20133;-76
2022/07/24 01:13:40;;;;;;;19.67;12.68;;;22.60;99.90;;;;;;5034467;28;20101;-76
2022/07/24 01:16:09;;;;;;;14.82;12.13;;;22.50;99.90;;;;;;5034549;28;20069;-76
2022/07/24 01:18:37;;;;;;;16.73;13.10;;;22.40;99.90;;;;;;5034519;28;20042;-77
2022/07/24 01:21:07;;;;;;;15.23;12.32;;;22.40;99.90;;;;;;5034884;28;20045;-75
2022/07/24 01:23:35;;;;;;;14.55;13.00;;;22.40;99.90;;;;;;5034942;28;20052;-78
2022/07/24 01:26:02;;;;;;;15.80;14.18;;;22.40;99.90;;;;;;5034506;28;20073;-77
2022/07/24 01:28:29;;;;;;;43.85;34.85;;;22.40;99.90;;;;;;5034468;28;20068;-76
2022/07/24 01:30:57;;;;;;;15.18;12.43;;;22.40;99.90;;;;;;5034459;28;20041;-75
2022/07/24 01:33:24;;;;;;;14.65;13.07;;;22.50;99.90;;;;;;5034975;28;20060;-76
2022/07/24 01:35:52;;;;;;;13.60;12.20;;;22.40;99.90;;;;;;5050791;28;20054;-76
2022/07/24 01:38:21;;;;;;;17.05;12.55;;;22.30;99.90;;;;;;5053771;28;20025;-75
2022/07/24 01:40:48;;;;;;;22.13;13.38;;;22.20;99.90;;;;;;5043509;28;20056;-76
2022/07/24 01:43:16;;;;;;;15.32;12.48;;;22.20;99.90;;;;;;5047567;28;20029;-77
2022/07/24 01:45:43;;;;;;;13.57;12.27;;;22.10;99.90;;;;;;5052276;28;20050;-76
2022/07/24 01:48:11;;;;;;;14.43;12.68;;;22.10;99.90;;;;;;5054724;28;20050;-75
2022/07/24 01:50:38;;;;;;;14.50;12.48;;;22.10;99.90;;;;;;5034958;28;20053;-75
2022/07/24 01:53:05;;;;;;;14.95;12.55;;;22.00;99.90;;;;;;5034398;28;20046;-76
2022/07/24 01:55:35;;;;;;;14.82;13.27;;;22.10;99.90;;;;;;5033993;28;20049;-75
2022/07/24 01:58:02;;;;;;;15.85;13.23;;;22.00;99.90;;;;;;5033943;28;20044;-78
2022/07/24 02:00:29;;;;;;;15.43;13.75;;;22.00;99.90;;;;;;5033863;28;20037;-76
2022/07/24 02:02:57;;;;;;;15.10;13.60;;;21.90;99.90;;;;;;5034263;28;20041;-76
2022/07/24 02:05:24;;;;;;;14.82;13.35;;;21.90;99.90;;;;;;5036438;28;20045;-75
2022/07/24 02:07:57;;;;;;;14.35;12.98;;;21.80;99.90;;;;;;5039154;28;20049;-75
2022/07/24 02:10:26;;;;;;;17.60;14.43;;;21.80;99.90;;;;;;5037733;28;20117;-76
2022/07/24 02:12:55;;;;;;;17.60;13.63;;;21.80;99.90;;;;;;5020182;28;20065;-77
2022/07/24 02:15:23;;;;;;;17.98;15.15;;;21.70;99.90;;;;;;5019993;28;20042;-76
2022/07/24 02:17:53;;;;;;;16.17;14.52;;;21.70;99.90;;;;;;5020065;28;20052;-75
2022/07/24 02:20:20;;;;;;;17.00;15.20;;;21.70;99.90;;;;;;5019691;28;20479;-76
2022/07/24 02:22:49;;;;;;;17.10;15.25;;;21.60;99.90;;;;;;5037516;28;20121;-76
2022/07/24 02:25:16;;;;;;;16.25;13.82;;;21.70;99.90;;;;;;5037644;28;20095;-76
2022/07/24 02:27:44;;;;;;;19.08;13.68;;;21.70;99.90;;;;;;5037651;28;20095;-76
2022/07/24 02:30:15;;;;;;;15.00;13.55;;;21.80;99.90;;;;;;5037398;28;20045;-75
2022/07/24 02:32:42;;;;;;;15.93;14.23;;;21.80;99.90;;;;;;5038058;28;20069;-76
2022/07/24 02:35:10;;;;;;;18.13;13.00;;;21.80;99.90;;;;;;5038125;28;20042;-75
2022/07/24 02:37:39;;;;;;;16.90;14.57;;;21.80;99.90;;;;;;5039251;28;20053;-75
2022/07/24 02:40:09;;;;;;;15.43;13.93;;;21.80;99.90;;;;;;5038277;28;20041;-76
2022/07/24 02:42:36;;;;;;;19.48;14.55;;;21.70;99.90;;;;;;5038817;28;20045;-73
2022/07/24 02:45:04;;;;;;;16.48;13.05;;;21.70;99.90;;;;;;5042171;28;20106;-74
2022/07/24 02:47:33;;;;;;;15.57;13.98;;;21.60;99.90;;;;;;5051081;28;20512;-76
2022/07/24 02:50:00;;;;;;;16.08;14.05;;;21.60;99.90;;;;;;5034870;28;20041;-76
2022/07/24 02:52:28;;;;;;;16.30;14.00;;;21.70;99.90;;;;;;5047408;28;20050;-76
2022/07/24 02:54:56;;;;;;;18.02;14.57;;;21.70;99.90;;;;;;5045098;28;20056;-76
2022/07/24 02:57:24;;;;;;;17.23;14.50;;;21.70;99.90;;;;;;5034890;28;20056;-75
2022/07/24 02:59:52;;;;;;;16.20;14.32;;;21.80;99.90;;;;;;5027549;28;20076;-77
2022/07/24 03:02:20;;;;;;;18.85;14.13;;;21.80;99.90;;;;;;5038093;28;20045;-75
2022/07/24 03:04:49;;;;;;;18.98;13.88;;;21.90;99.90;;;;;;5037141;28;20129;-76
2022/07/24 03:07:16;;;;;;;17.13;13.75;;;21.90;99.90;;;;;;5037824;28;20049;-75
2022/07/24 03:09:43;;;;;;;15.38;13.75;;;21.90;99.90;;;;;;5036755;28;20125;-75
2022/07/24 03:12:11;;;;;;;15.68;14.05;;;22.00;99.90;;;;;;5037182;28;20045;-77
2022/07/24 03:14:38;;;;;;;17.90;14.13;;;22.10;99.90;;;;;;5019198;28;20049;-76
2022/07/24 03:17:06;;;;;;;18.33;14.15;;;22.10;99.90;;;;;;5037614;28;20038;-75
2022/07/24 03:19:33;;;;;;;17.25;13.98;;;22.10;99.90;;;;;;5037642;28;20401;-76
2022/07/24 03:22:02;;;;;;;16.38;14.38;;;22.10;99.90;;;;;;5036666;28;20048;-75
2022/07/24 03:24:29;;;;;;;16.58;14.55;;;22.20;99.90;;;;;;5036420;28;20041;-75
2022/07/24 03:26:57;;;;;;;19.35;14.57;;;22.20;99.90;;;;;;5036178;28;20103;-76
2022/07/24 03:29:24;;;;;;;21.08;15.65;;;22.20;99.90;;;;;;5036019;28;20049;-76
2022/07/24 03:31:51;;;;;;;23.27;16.77;;;22.20;99.90;;;;;;5036122;28;20041;-75
2022/07/24 03:34:18;;;;;;;19.13;17.13;;;22.40;99.90;;;;;;5036258;28;20046;-75
2022/07/24 03:36:46;;;;;;;22.88;15.55;;;22.40;99.90;;;;;;5036156;28;20069;-76
2022/07/24 03:39:15;;;;;;;26.10;16.25;;;22.50;99.90;;;;;;5036256;28;20033;-77
2022/07/24 03:41:42;;;;;;;19.23;14.07;;;22.50;99.90;;;;;;5018440;28;20136;-75
2022/07/24 03:44:10;;;;;;;24.95;14.98;;;22.50;99.90;;;;;;5035661;28;20052;-75
2022/07/24 03:46:37;;;;;;;21.13;15.68;;;22.50;99.90;;;;;;5036552;28;20069;-77
2022/07/24 03:49:04;;;;;;;18.17;16.27;;;22.50;99.90;;;;;;5036431;28;20156;-78
2022/07/24 03:51:32;;;;;;;19.45;15.02;;;22.60;99.90;;;;;;5075362;22;20048;-78
2022/07/24 03:53:59;;;;;;;19.80;16.35;;;22.70;99.90;;;;;;5073938;28;20111;-77
2022/07/24 03:56:29;;;;;;;25.65;16.17;;;22.80;99.90;;;;;;5084091;28;20045;-76
2022/07/24 03:58:56;;;;;;;20.65;15.20;;;22.90;99.90;;;;;;5101964;28;20081;-76
2022/07/24 04:01:23;;;;;;;17.73;14.95;;;23.10;99.90;;;;;;5102679;28;20043;-77
2022/07/24 04:03:51;;;;;;;25.13;16.58;;;23.40;99.90;;;;;;5081492;28;20440;-77
2022/07/24 04:06:18;;;;;;;24.02;17.27;;;23.70;99.90;;;;;;5081451;28;20048;-77
2022/07/24 04:08:47;;;;;;;17.13;14.27;;;24.10;99.90;;;;;;5099754;28;20432;-77
2022/07/24 04:11:14;;;;;;;17.27;14.32;;;24.50;99.90;;;;;;5083777;28;20036;-77
2022/07/24 04:13:43;;;;;;;18.80;15.23;;;24.90;99.90;;;;;;5101347;28;20032;-77
2022/07/24 04:16:10;;;;;;;21.00;15.25;;;25.00;99.90;;;;;;5082515;28;20074;-76
2022/07/24 04:18:37;;;;;;;20.05;15.50;;;25.40;99.90;;;;;;5102017;28;20452;-77
2022/07/24 04:21:05;;;;;;;21.88;15.90;;;25.90;99.90;;;;;;5101227;28;20040;-77
2022/07/24 04:23:32;;;;;;;18.45;14.68;;;26.50;99.90;;;;;;5102085;28;20055;-77
2022/07/24 04:26:00;;;;;;;21.35;14.27;;;27.00;99.90;;;;;;5100882;28;20040;-78
2022/07/24 04:28:27;;;;;;;22.42;14.98;;;27.50;99.90;;;;;;5100333;28;20044;-77
2022/07/24 04:30:56;;;;;;;18.60;15.80;;;27.90;99.90;;;;;;5098022;28;20086;-76
2022/07/24 04:33:23;;;;;;;32.60;19.10;;;28.40;99.90;;;;;;5098023;28;20044;-78
2022/07/24 04:35:50;;;;;;;30.02;19.77;;;28.70;99.90;;;;;;5099118;28;20078;-78
2022/07/24 04:38:18;;;;;;;34.17;20.83;;;29.20;99.90;;;;;;5081832;28;20052;-77
2022/07/24 04:40:45;;;;;;;25.80;18.85;;;29.60;99.90;;;;;;5100573;28;20039;-77
2022/07/24 04:43:13;;;;;;;24.65;18.77;;;29.80;99.90;;;;;;5100005;28;20100;-77
2022/07/24 04:45:40;;;;;;;27.95;18.10;;;29.90;99.90;;;;;;5084182;28;20460;-77
2022/07/24 04:48:09;;;;;;;22.85;18.25;;;30.00;99.90;;;;;;5100239;28;20138;-77
2022/07/24 04:50:36;;;;;;;25.90;18.35;;;30.40;99.90;;;;;;5096619;28;20093;-77
2022/07/24 04:53:03;;;;;;;24.48;18.75;;;30.70;99.90;;;;;;5093958;28;20064;-76
2022/07/24 04:55:30;;;;;;;25.02;19.25;;;30.90;99.90;;;;;;5097575;28;20447;-77
2022/07/24 04:57:58;;;;;;;32.15;19.60;;;31.20;99.90;;;;;;5096699;28;20101;-78
2022/07/24 05:00:25;;;;;;;33.38;20.90;;;31.40;99.90;;;;;;5097364;28;20089;-76
2022/07/24 05:02:52;;;;;;;28.25;20.60;;;31.10;99.90;;;;;;5098381;28;20040;-77
2022/07/24 05:05:21;;;;;;;34.63;20.40;;;30.50;99.90;;;;;;5099685;28;20093;-77
2022/07/24 05:07:48;;;;;;;27.50;20.88;;;29.90;99.90;;;;;;5097529;28;20127;-77
2022/07/24 05:10:16;;;;;;;27.30;20.67;;;29.70;99.90;;;;;;5097925;28;20067;-75
2022/07/24 05:12:43;;;;;;;25.83;19.63;;;29.30;99.90;;;;;;5098127;28;20044;-77
2022/07/24 05:15:11;;;;;;;23.15;17.83;;;29.20;99.90;;;;;;5099287;28;20483;-78
2022/07/24 05:17:38;;;;;;;28.17;19.13;;;29.70;99.90;;;;;;5098793;28;20048;-77
2022/07/24 05:20:07;;;;;;;25.83;19.20;;;29.80;99.90;;;;;;5100833;28;20040;-78
2022/07/24 05:22:35;;;;;;;24.88;20.38;;;29.90;99.90;;;;;;5099681;28;20479;-77
2022/07/24 05:25:03;;;;;;;25.88;18.58;;;30.40;99.90;;;;;;5098843;28;20060;-78
2022/07/24 05:27:30;;;;;;;22.98;18.73;;;30.40;99.90;;;;;;5098945;28;20093;-77
2022/07/24 05:29:57;;;;;;;26.80;19.02;;;30.40;99.90;;;;;;5099203;28;20036;-78
2022/07/24 05:32:24;;;;;;;27.67;19.35;;;30.60;99.90;;;;;;5097544;28;20048;-78
2022/07/24 05:34:51;;;;;;;23.95;19.48;;;30.90;99.90;;;;;;5099301;28;20066;-76
2022/07/24 05:37:19;;;;;;;24.98;18.60;;;30.40;99.90;;;;;;5098069;28;20040;-77
2022/07/24 05:39:48;;;;;;;29.73;19.40;;;29.70;99.90;;;;;;5099538;28;20090;-77
2022/07/24 05:42:16;;;;;;;26.25;19.85;;;29.00;99.90;;;;;;5098919;28;20079;-77
2022/07/24 05:44:43;;;;;;;21.58;18.20;;;29.00;99.90;;;;;;5096453;28;20445;-77
2022/07/24 05:47:10;;;;;;;30.88;19.50;;;29.40;99.90;;;;;;5098043;28;20036;-76
2022/07/24 05:49:38;;;;;;;28.27;19.02;;;30.00;99.90;;;;;;5096263;28;20044;-77
2022/07/24 05:52:05;;;;;;;20.38;17.08;;;30.50;99.90;;;;;;5097959;28;20060;-77
2022/07/24 05:54:33;;;;;;;23.15;17.13;;;30.60;99.90;;;;;;5097440;28;20552;-77
2022/07/24 05:57:01;;;;;;;26.50;18.15;;;30.80;99.90;;;;;;5098834;28;20078;-77
2022/07/24 05:59:29;;;;;;;23.40;17.67;;;30.70;99.90;;;;;;5098972;28;20040;-78
2022/07/24 06:01:56;;;;;;;20.85;16.67;;;30.70;99.90;;;;;;5079633;28;20036;-76
2022/07/24 06:04:23;;;;;;;22.92;16.63;;;31.10;99.90;;;;;;5096647;28;20387;-77
2022/07/24 06:06:50;;;;;;;24.73;16.08;;;31.40;99.90;;;;;;5099287;28;20468;-77
2022/07/24 06:09:18;;;;;;;22.50;13.60;;;31.50;99.90;;;;;;5098438;28;20116;-78
2022/07/24 06:11:45;;;;;;;19.73;13.73;;;31.70;99.90;;;;;;5097973;28;20036;-77
2022/07/24 06:14:13;;;;;;;20.65;13.20;;;31.80;99.90;;;;;;5099931;28;20040;-77
2022/07/24 06:16:41;;;;;;;26.67;15.43;;;31.90;99.90;;;;;;5079811;28;20044;-76
2022/07/24 06:19:08;;;;;;;15.25;13.07;;;32.00;99.90;;;;;;5098102;28;20040;-77
2022/07/24 06:21:35;;;;;;;14.13;12.48;;;32.10;99.90;;;;;;5098654;28;20094;-77
2022/07/24 06:24:02;;;;;;;16.15;11.93;;;32.20;99.90;;;;;;5097948;28;20431;-78
2022/07/24 06:26:30;;;;;;;12.63;11.32;;;31.90;99.70;;;;;;5078215;28;20449;-77
2022/07/24 06:28:57;;;;;;;14.38;11.52;;;31.70;99.70;;;;;;5097128;28;20465;-79
2022/07/24 06:31:29;;;;;;;12.95;10.38;;;31.70;99.70;;;;;;5098522;28;20045;-77
2022/07/24 06:33:56;;;;;;;15.88;10.50;;;31.90;99.50;;;;;;5098783;28;20040;-76
2022/07/24 06:36:23;;;;;;;12.65;10.05;;;32.00;99.10;;;;;;5095727;28;20510;-77
2022/07/24 06:38:51;;;;;;;14.40;11.43;;;32.30;97.90;;;;;;5100495;28;20093;-76
2022/07/24 06:41:18;;;;;;;10.00;8.93;;;32.40;97.30;;;;;;5082252;28;20165;-77
2022/07/24 06:43:46;;;;;;;12.32;9.90;;;32.50;96.30;;;;;;5081606;28;20052;-77
2022/07/24 06:46:13;;;;;;;13.23;9.18;;;32.60;95.40;;;;;;5110902;28;20051;-77
2022/07/24 06:48:42;;;;;;;23.23;10.35;;;32.30;95.30;;;;;;5110804;28;20044;-77
2022/07/24 06:51:10;;;;;;;13.88;9.98;;;32.40;94.70;;;;;;5082006;28;20407;-77
2022/07/24 06:53:40;;;;;;;11.10;8.98;;;32.50;94.60;;;;;;5085137;28;20086;-78
2022/07/24 06:56:08;;;;;;;14.40;9.80;;;32.70;94.40;;;;;;5103290;28;20040;-77
2022/07/24 06:58:35;;;;;;;11.60;10.45;;;32.40;94.50;;;;;;5102102;28;20372;-77
2022/07/24 07:01:03;;;;;;;12.02;9.85;;;32.50;94.50;;;;;;5083829;28;20081;-77
2022/07/24 07:03:30;;;;;;;11.23;8.80;;;32.60;94.70;;;;;;5102625;28;20111;-78
2022/07/24 07:05:58;;;;;;;9.70;8.68;;;32.90;94.00;;;;;;5102909;28;20396;-78
2022/07/24 07:08:26;;;;;;;11.32;9.07;;;33.10;93.80;;;;;;5084203;28;20044;-77
2022/07/24 07:10:53;;;;;;;10.60;8.75;;;32.90;94.00;;;;;;5100439;28;20040;-77
2022/07/24 07:13:21;;;;;;;12.18;9.55;;;32.80;93.90;;;;;;5081671;28;20047;-77
2022/07/24 07:15:48;;;;;;;11.40;9.60;;;32.60;94.00;;;;;;5101428;28;20040;-78
2022/07/24 07:18:15;;;;;;;11.70;10.50;;;32.70;94.10;;;;;;5100677;28;20082;-77
2022/07/24 07:20:43;;;;;;;10.25;9.13;;;32.50;94.00;;;;;;5099914;28;20047;-77
2022/07/24 07:23:11;;;;;;;12.15;10.88;;;32.30;94.40;;;;;;5080408;28;20097;-77
2022/07/24 07:25:39;;;;;;;12.50;10.00;;;32.30;94.50;;;;;;5082140;28;20052;-77
2022/07/24 07:28:06;;;;;;;12.35;9.73;;;32.20;94.60;;;;;;5101860;28;20040;-77
2022/07/24 07:30:33;;;;;;;13.95;10.13;;;32.40;94.60;;;;;;5101810;28;20036;-75
2022/07/24 07:33:01;;;;;;;10.65;8.43;;;32.10;94.70;;;;;;5083199;28;20040;-76
2022/07/24 07:35:28;;;;;;;10.15;8.98;;;32.00;94.80;;;;;;5081388;28;20040;-76
2022/07/24 07:37:55;;;;;;;14.13;10.85;;;32.20;94.80;;;;;;5082566;28;20563;-77
2022/07/24 07:40:26;;;;;;;14.10;11.75;;;32.40;94.60;;;;;;5083098;28;20117;-77
2022/07/24 07:42:53;;;;;;;10.80;8.55;;;32.40;94.10;;;;;;5103555;28;20040;-78
2022/07/24 07:45:20;;;;;;;10.20;8.38;;;32.10;94.30;;;;;;5101434;28;20086;-78
2022/07/24 07:47:48;;;;;;;8.93;8.02;;;31.70;94.90;;;;;;5101307;28;20081;-78
2022/07/24 07:50:15;;;;;;;9.95;8.50;;;31.60;95.10;;;;;;5101714;28;20093;-76
2022/07/24 07:52:43;;;;;;;11.82;8.50;;;31.70;95.50;;;;;;5094454;28;20074;-77
2022/07/24 07:55:11;;;;;;;9.52;8.55;;;31.20;95.90;;;;;;5100650;28;20044;-77
2022/07/24 07:57:41;;;;;;;13.98;9.80;;;31.00;96.50;;;;;;5100705;28;20064;-76
2022/07/24 08:00:09;;;;;;;23.25;11.38;;;31.20;96.80;;;;;;5099027;28;20043;-78
2022/07/24 08:02:38;;;;;;;11.27;9.50;;;31.30;96.30;;;;;;5098157;28;20103;-76
2022/07/24 08:05:06;;;;;;;10.27;9.18;;;31.20;96.50;;;;;;5099101;28;20036;-77
2022/07/24 08:07:34;;;;;;;10.50;8.68;;;31.20;96.50;;;;;;5101144;28;20044;-77
2022/07/24 08:10:02;;;;;;;11.10;8.20;;;31.60;96.00;;;;;;5099402;28;20040;-77
2022/07/24 08:12:29;;;;;;;16.48;8.10;;;31.70;95.30;;;;;;5100695;28;20039;-76
2022/07/24 08:14:58;;;;;;;11.10;8.38;;;31.80;95.30;;;;;;5100298;28;20509;-77
2022/07/24 08:17:25;;;;;;;14.60;8.45;;;32.10;95.20;;;;;;5100668;28;20043;-77
2022/07/24 08:19:52;;;;;;;12.85;9.43;;;32.10;94.80;;;;;;5098784;28;20048;-77
2022/07/24 08:22:20;;;;;;;13.23;9.15;;;32.10;95.40;;;;;;5099516;28;20043;-77
2022/07/24 08:24:47;;;;;;;13.60;11.85;;;32.50;95.00;;;;;;5099688;28;20515;-76
2022/07/24 08:27:14;;;;;;;16.48;13.05;;;32.60;94.80;;;;;;5099528;28;20112;-77
2022/07/24 08:29:41;;;;;;;16.73;11.13;;;32.80;94.80;;;;;;5100122;28;20040;-77
2022/07/24 08:32:10;;;;;;;12.10;10.90;;;32.90;94.70;;;;;;5101354;28;20062;-77
2022/07/24 08:34:37;;;;;;;10.63;9.25;;;33.20;94.30;;;;;;5097074;28;20074;-77
2022/07/24 08:37:05;;;;;;;11.98;10.10;;;33.20;93.80;;;;;;5099793;28;20089;-77
2022/07/24 08:39:32;;;;;;;11.52;10.43;;;33.30;93.70;;;;;;5100650;28;20123;-77
2022/07/24 08:42:00;;;;;;;12.68;9.68;;;33.30;93.70;;;;;;5099890;28;20047;-77
2022/07/24 08:44:28;;;;;;;11.52;9.90;;;33.30;93.60;;;;;;5099021;28;20047;-77
2022/07/24 08:46:57;;;;;;;11.32;10.23;;;33.60;93.30;;;;;;5097248;28;20070;-77
2022/07/24 08:49:30;;;;;;;10.90;8.90;;;33.80;92.90;;;;;;5100025;28;20105;-77
2022/07/24 08:52:03;;;;;;;12.68;9.15;;;33.40;92.80;;;;;;5097565;28;20063;-79
2022/07/24 08:54:30;;;;;;;9.70;8.70;;;33.60;93.10;;;;;;5100892;28;20047;-77
2022/07/24 08:56:57;;;;;;;13.02;10.40;;;33.70;92.80;;;;;;5098884;28;20052;-77
2022/07/24 08:59:25;;;;;;;11.07;9.40;;;34.00;92.20;;;;;;5097965;28;20090;-78
2022/07/24 09:01:53;;;;;;;14.45;11.80;;;34.40;91.40;;;;;;5098899;28;20036;-77
2022/07/24 09:04:36;;;;;;;13.35;10.30;;;34.30;90.90;;;;;;5099425;28;20099;-77
2022/07/24 09:07:06;;;;;;;10.15;9.07;;;34.80;90.60;;;;;;5100015;28;20048;-76
2022/07/24 09:09:33;;;;;;;9.68;8.45;;;34.90;90.00;;;;;;5100945;28;20044;-77
2022/07/24 09:12:09;;;;;;;12.88;10.55;;;35.00;89.00;;;;;;5098146;28;20048;-77
2022/07/24 09:14:39;;;;;;;11.02;9.38;;;34.90;88.10;;;;;;5099051;28;20101;-78
2022/07/24 09:17:08;;;;;;;11.35;8.52;;;35.00;88.10;;;;;;5099822;28;20082;-78
2022/07/24 09:19:53;;;;;;;12.00;8.70;;;34.90;87.90;;;;;;5100458;28;20044;-79
2022/07/24 09:22:33;;;;;;;13.40;9.38;;;34.70;88.70;;;;;;5100083;28;20052;-78
2022/07/24 09:25:15;;;;;;;13.82;10.80;;;35.00;87.70;;;;;;5099160;28;20051;-78
2022/07/24 09:27:46;;;;;;;11.77;10.65;;;34.80;85.80;;;;;;5099972;28;20043;-78
2022/07/24 09:30:25;;;;;;;12.13;8.93;;;34.60;86.10;;;;;;5100996;28;20044;-78
2022/07/24 09:32:54;;;;;;;12.80;8.15;;;34.40;87.10;;;;;;5099751;28;20028;-76
2022/07/24 09:35:29;;;;;;;11.43;9.50;;;34.50;86.80;;;;;;5100622;28;20044;-78
2022/07/24 09:37:58;;;;;;;;;;;34.80;85.60;;;;;;5100384;28;20064;-78
2022/07/24 09:40:30;;;;;;;15.00;9.18;;;34.90;84.80;;;;;;5101236;28;19920;-78
2022/07/24 09:43:14;;;;;;;13.80;9.40;;;34.90;84.70;;;;;;5100033;28;20050;-77
2022/07/24 09:45:59;;;;;;;9.98;8.05;;;34.70;84.70;;;;;;5099734;28;20044;-78
2022/07/24 09:48:28;;;;;;;10.33;8.27;;;34.60;84.50;;;;;;5099832;28;20048;-78
2022/07/24 09:50:58;;;;;;;12.02;8.38;;;34.30;85.00;;;;;;5112531;28;20292;-79
2022/07/24 09:53:28;;;;;;;10.82;9.45;;;34.40;85.00;;;;;;5125493;22;20066;-75
2022/07/24 09:56:00;;;;;;;11.32;10.18;;;34.10;84.30;;;;;;5111005;28;20040;-77
2022/07/24 09:58:27;;;;;;;13.15;11.20;;;34.20;84.90;;;;;;5116021;28;20409;-76
2022/07/24 10:00:56;;;;;;;10.07;8.43;;;34.20;84.30;;;;;;5099003;28;20135;-76
2022/07/24 10:03:26;;;;;;;9.75;8.75;;;34.20;83.90;;;;;;5116993;28;20050;-76
2022/07/24 10:06:00;;;;;;;11.65;8.43;;;33.90;83.70;;;;;;5117928;28;20028;-76
2022/07/24 10:08:33;;;;;;;12.00;8.35;;;33.80;83.80;;;;;;5115467;28;20108;-75
2022/07/24 10:11:01;;;;;;;10.38;7.72;;;33.80;83.90;;;;;;5116039;28;20097;-75
2022/07/24 10:13:29;;;;;;;11.07;7.80;;;33.90;83.30;;;;;;5099085;28;20441;-76
2022/07/24 10:16:14;;;;;;;9.50;7.80;;;34.00;83.00;;;;;;5121478;28;20047;-76
2022/07/24 10:18:47;;;;;;;8.57;7.65;;;33.90;82.30;;;;;;5121444;28;20108;-76
2022/07/24 10:21:20;;;;;;;10.68;9.02;;;33.90;82.10;;;;;;5121210;28;20035;-76
2022/07/24 10:24:12;;;;;;;10.20;9.27;;;33.90;82.20;;;;;;5121439;28;20092;-76
2022/07/24 10:26:41;;;;;;;8.85;7.90;;;34.10;81.60;;;;;;5106861;28;20055;-76
2022/07/24 10:29:10;;;;;;;7.18;6.38;;;34.40;80.60;;;;;;5126737;28;20040;-75
2022/07/24 10:31:39;;;;;;;8.07;7.13;;;34.20;80.20;;;;;;5119005;28;20050;-75
2022/07/24 10:34:13;;;;;;;9.13;7.15;;;34.20;79.80;;;;;;5119116;28;20048;-76
2022/07/24 10:37:00;;;;;;;9.77;7.82;;;34.10;79.20;;;;;;5110509;28;20074;-75
2022/07/24 10:39:37;;;;;;;9.55;8.57;;;34.50;79.30;;;;;;5138325;28;20044;-77
2022/07/24 10:42:06;;;;;;;8.18;7.38;;;34.70;77.90;;;;;;5129763;28;20490;-76
2022/07/24 10:44:34;;;;;;;9.90;7.72;;;35.10;76.80;;;;;;5129474;28;20067;-77
2022/07/24 10:47:12;;;;;;;9.45;7.45;;;35.10;75.90;;;;;;5128207;28;20048;-75
2022/07/24 10:49:47;;;;;;;8.90;6.95;;;34.70;76.40;;;;;;5126845;28;20053;-76
2022/07/24 10:52:36;;;;;;;10.65;7.45;;;34.50;77.00;;;;;;5128396;28;20059;-76
2022/07/24 10:55:40;;;;;;;9.25;6.95;;;34.70;76.50;;;;;;5117825;28;20528;-76
2022/07/24 10:58:15;;;;;;;9.15;7.35;;;34.70;76.30;;;;;;5117904;28;20043;-75
2022/07/24 11:00:46;;;;;;;10.63;7.80;;;34.80;75.90;;;;;;5118239;28;20036;-77
2022/07/24 11:03:20;;;;;;;7.97;7.20;;;35.20;75.60;;;;;;5117923;28;20044;-74
2022/07/24 11:06:03;;;;;;;9.10;7.28;;;35.20;75.60;;;;;;5117823;28;20039;-76
2022/07/24 11:08:36;;;;;;;9.35;7.68;;;34.70;76.20;;;;;;5100680;28;20112;-74
2022/07/24 11:11:13;;;;;;;10.90;7.43;;;34.80;76.30;;;;;;5119221;28;20066;-77
2022/07/24 11:13:49;;;;;;;8.18;7.38;;;35.00;75.40;;;;;;5118597;28;20050;-77
2022/07/24 11:16:30;;;;;;;8.68;7.63;;;34.70;74.50;;;;;;5118443;28;20069;-77
2022/07/24 11:19:29;;;;;;;14.32;10.88;;;34.60;74.50;;;;;;5099639;28;20047;-77
2022/07/24 11:22:08;;;;;;;9.55;7.65;;;34.60;74.90;;;;;;5117368;28;20038;-76
2022/07/24 11:24:40;;;;;;;8.23;7.32;;;34.70;75.00;;;;;;5117276;28;20051;-75
2022/07/24 11:27:14;;;;;;;7.30;6.57;;;34.20;76.00;;;;;;5117359;28;20118;-76
2022/07/24 11:29:41;;;;;;;8.10;7.32;;;34.00;76.50;;;;;;5118050;28;20410;-75
2022/07/24 11:32:14;;;;;;;8.65;7.80;;;34.10;76.80;;;;;;5117800;28;20050;-76
2022/07/24 11:34:45;;;;;;;10.65;9.57;;;34.10;76.80;;;;;;5117560;28;20501;-77
2022/07/24 11:37:13;;;;;;;8.43;7.53;;;34.10;76.20;;;;;;5117722;28;20045;-77
2022/07/24 11:39:44;;;;;;;9.05;7.47;;;34.10;76.20;;;;;;5118139;28;20043;-77
2022/07/24 11:42:13;;;;;;;12.38;8.10;;;34.10;76.20;;;;;;5117581;28;20115;-77
2022/07/24 11:44:43;;;;;;;8.30;7.50;;;34.30;76.00;;;;;;5099166;28;20044;-75
2022/07/24 11:47:13;;;;;;;9.80;7.68;;;34.10;75.20;;;;;;5117401;28;20421;-76
2022/07/24 11:49:42;;;;;;;9.38;7.70;;;34.20;74.50;;;;;;5116766;28;20483;-76
2022/07/24 11:52:15;;;;;;;10.63;7.55;;;33.90;74.80;;;;;;5117119;28;20079;-77
2022/07/24 11:54:45;;;;;;;10.35;8.90;;;34.00;74.90;;;;;;5098205;28;20048;-77
2022/07/24 11:57:21;;;;;;;9.85;8.85;;;34.40;74.40;;;;;;5116427;28;20093;-77
2022/07/24 11:59:49;;;;;;;9.15;8.07;;;34.80;73.70;;;;;;5116521;28;20575;-76
2022/07/24 12:02:17;;;;;;;8.80;7.90;;;34.80;73.60;;;;;;5098115;28;20044;-77
2022/07/24 12:04:47;;;;;;;8.20;7.20;;;34.40;74.70;;;;;;5116134;28;20123;-77
2022/07/24 12:07:17;;;;;;;10.45;7.90;;;34.40;74.80;;;;;;5116933;28;20093;-76
2022/07/24 12:09:48;;;;;;;9.68;7.70;;;34.40;74.90;;;;;;5117518;28;20044;-77
2022/07/24 12:12:27;;;;;;;8.25;6.97;;;34.30;75.20;;;;;;5097632;28;20093;-76
2022/07/24 12:15:02;;;;;;;7.72;7.00;;;34.40;75.70;;;;;;5119745;28;20073;-76
2022/07/24 12:17:30;;;;;;;11.75;7.82;;;34.10;75.90;;;;;;5127653;28;20490;-75
2022/07/24 12:20:01;;;;;;;8.10;6.60;;;33.80;76.40;;;;;;5116488;28;20402;-76
2022/07/24 12:22:29;;;;;;;9.30;6.38;;;33.80;76.90;;;;;;5097472;28;20071;-76
2022/07/24 12:24:59;;;;;;;10.45;6.13;;;33.70;77.30;;;;;;5115740;28;20057;-76
2022/07/24 12:27:38;;;;;;;8.95;6.22;;;33.90;77.70;;;;;;5116803;28;20047;-75
2022/07/24 12:30:18;;;;;;;7.95;5.93;;;33.70;77.50;;;;;;5099144;28;20109;-74
2022/07/24 12:33:00;;;;;;;9.40;5.95;;;32.70;78.60;;;;;;5117258;28;20031;-77
2022/07/24 12:35:30;;;;;;;10.07;5.63;;;32.80;79.50;;;;;;5115735;28;20079;-77
2022/07/24 12:37:58;;;;;;;6.10;5.50;;;32.80;79.50;;;;;;5115872;28;20047;-76
2022/07/24 12:40:32;;;;;;;6.38;5.78;;;32.60;80.00;;;;;;5115700;28;20520;-76
2022/07/24 12:43:02;;;;;;;7.15;4.90;;;32.50;80.20;;;;;;5115067;28;20035;-76
2022/07/24 12:45:30;;;;;;;6.20;5.53;;;32.50;80.10;;;;;;5097142;28;20138;-76